Time;durP1;ratioP1;P1;durP2;ratioP2;P2;SDS_P1;SDS_P2;PMS_P1;PMS_P2;Temp;Humidity;BMP_temperature;BMP_pressure;BME280_temperature;BME280_humidity;BME280_pressure;Samples;Min_cycle;Max_cycle;Signal;HPM_P1;HPM_P2
2022/10/24 00:00:07;;;;;;;390.93;271.33;;;;;;;14.46;63.82;100274.25;317037;31;2303;-75
2022/10/24 00:00:18;;;;;;;391.05;267.73;;;;;;;14.47;64.01;100275.13;315175;31;839;-75
2022/10/24 00:00:28;;;;;;;390.90;261.90;;;;;;;14.48;63.87;100279.47;312903;31;1973;-76
2022/10/24 00:00:41;;;;;;;390.13;258.83;;;;;;;14.44;63.61;100270.84;313715;31;3524;-75
2022/10/24 00:00:51;;;;;;;387.13;256.80;;;;;;;14.41;63.71;100281.53;313776;31;3793;-77
2022/10/24 00:01:06;;;;;;;388.47;261.17;;;;;;;14.41;63.54;100275.38;311573;31;3828;-75
2022/10/24 00:01:19;;;;;;;390.38;259.98;;;;;;;14.40;63.35;100282.41;305245;32;5045;-76
2022/10/24 00:01:30;;;;;;;393.02;262.13;;;;;;;14.39;63.69;100278.06;304296;32;952;-76
2022/10/24 00:01:40;;;;;;;393.13;264.20;;;;;;;14.36;63.88;100274.72;304582;32;4575;-76
2022/10/24 00:01:51;;;;;;;393.92;270.88;;;;;;;14.36;63.29;100274.72;302129;32;5170;-75
2022/10/24 00:02:01;;;;;;;390.50;264.87;;;;;;;14.32;63.53;100279.28;304284;32;1336;-75
2022/10/24 00:02:11;;;;;;;389.10;260.98;;;;;;;14.30;63.64;100274.06;296920;32;2941;-76
2022/10/24 00:02:23;;;;;;;387.67;257.10;;;;;;;14.30;63.67;100274.06;296098;33;3446;-76
2022/10/24 00:02:34;;;;;;;387.10;261.70;;;;;;;14.29;63.50;100272.41;295938;33;6797;-75
2022/10/24 00:02:44;;;;;;;388.70;266.10;;;;;;;14.28;63.65;100269.84;294223;33;2104;-75
2022/10/24 00:02:55;;;;;;;389.77;264.17;;;;;;;14.28;63.38;100273.31;293767;33;6398;-75
2022/10/24 00:03:05;;;;;;;389.83;261.52;;;;;;;14.27;63.58;100271.59;292676;33;6032;-75
2022/10/24 00:03:15;;;;;;;389.37;256.03;;;;;;;14.29;63.41;100269.75;296113;33;943;-75
2022/10/24 00:03:26;;;;;;;389.77;260.20;;;;;;;14.29;63.66;100267.13;294616;33;5376;-76
2022/10/24 00:03:36;;;;;;;388.75;258.85;;;;;;;14.30;63.29;100266.16;295829;33;6426;-76
2022/10/24 00:03:48;;;;;;;388.00;262.27;;;;;;;14.31;63.57;100270.50;294064;33;1235;-76
2022/10/24 00:03:58;;;;;;;388.45;264.45;;;;;;;14.31;63.12;100270.50;290118;33;6681;-74
2022/10/24 00:04:08;;;;;;;392.00;273.47;;;;;;;14.30;63.27;100274.06;291543;33;4773;-74
2022/10/24 00:04:19;;;;;;;392.45;272.92;;;;;;;14.32;62.92;100274.84;290719;33;3356;-74
2022/10/24 00:04:29;;;;;;;393.93;275.50;;;;;;;14.35;63.12;100267.75;289143;34;1051;-75
2022/10/24 00:04:40;;;;;;;390.17;265.90;;;;;;;14.32;63.25;100266.09;289565;33;5102;-74
2022/10/24 00:04:50;;;;;;;390.73;265.00;;;;;;;14.32;62.84;100271.38;290903;33;10490;-75
2022/10/24 00:05:01;;;;;;;387.95;258.92;;;;;;;14.31;62.62;100267.03;287425;34;1431;-76
2022/10/24 00:05:12;;;;;;;388.60;261.37;;;;;;;14.32;63.08;100271.38;285052;34;8817;-76
2022/10/24 00:05:23;;;;;;;391.60;269.75;;;;;;;14.34;63.01;100264.25;286136;34;8465;-76
2022/10/24 00:05:33;;;;;;;395.00;276.52;;;;;;;14.32;62.61;100271.38;284847;34;7893;-76
2022/10/24 00:05:44;;;;;;;393.27;271.37;;;;;;;14.33;62.45;100267.81;281882;35;2149;-76
2022/10/24 00:05:56;;;;;;;389.92;265.17;;;;;;;14.35;62.67;100273.00;281025;34;9276;-76
2022/10/24 00:08:11;;;;;;;370.04;218.38;;;;;;;14.33;62.95;100271.28;2496337;27;20977;-75
2022/10/24 00:08:21;;;;;;;386.03;252.77;;;;;;;14.35;63.01;100265.09;353067;28;1206;-74
2022/10/24 00:08:33;;;;;;;387.70;258.75;;;;;;;14.37;62.73;100269.38;351661;28;1555;-75
2022/10/24 00:08:43;;;;;;;389.25;262.52;;;;;;;14.38;62.52;100270.22;350319;28;1629;-76
2022/10/24 00:08:54;;;;;;;390.23;266.25;;;;;;;14.38;62.76;100267.59;350213;28;1765;-76
2022/10/24 00:09:05;;;;;;;387.75;260.55;;;;;;;14.38;62.85;100268.47;348656;28;1371;-75
2022/10/24 00:09:15;;;;;;;387.20;257.87;;;;;;;14.37;62.94;100273.78;348945;28;1388;-75
2022/10/24 00:09:25;;;;;;;385.10;253.82;;;;;;;14.36;62.60;100272.09;347154;28;1178;-76
2022/10/24 00:09:36;;;;;;;384.27;249.87;;;;;;;14.38;62.64;100270.22;349104;28;899;-75
2022/10/24 00:09:46;;;;;;;383.80;248.38;;;;;;;14.35;62.72;100270.38;347859;28;976;-75
2022/10/24 00:09:57;;;;;;;384.10;244.80;;;;;;;14.35;62.83;100275.63;348963;28;805;-75
2022/10/24 00:10:08;;;;;;;383.13;244.07;;;;;;;14.35;62.67;100270.38;346172;28;1015;-76
2022/10/24 00:10:18;;;;;;;384.50;252.07;;;;;;;14.37;62.50;100268.53;344719;28;5899;-74
2022/10/24 00:10:29;;;;;;;389.23;265.63;;;;;;;14.36;62.61;100266.81;347911;28;5952;-74
2022/10/24 00:10:43;;;;;;;391.17;270.65;;;;;;;14.37;62.80;100268.53;349423;28;1612;-76
2022/10/24 00:10:54;;;;;;;391.58;267.80;;;;;;;14.40;62.49;100263.13;347226;28;2807;-75
2022/10/24 00:11:10;;;;;;;387.52;258.40;;;;;;;14.39;62.29;100269.31;345697;28;1340;-76
2022/10/24 00:11:22;;;;;;;386.33;259.48;;;;;;;14.39;62.42;100266.69;346207;28;1370;-76
2022/10/24 00:11:33;;;;;;;389.86;266.66;;;;;;;14.38;62.49;100267.59;347530;28;987;-76
2022/10/24 00:11:43;;;;;;;390.00;265.23;;;;;;;14.39;62.71;100266.69;346235;28;942;-74
2022/10/24 00:11:54;;;;;;;391.00;259.25;;;;;;;14.38;62.67;100271.09;345900;28;1219;-75
2022/10/24 00:12:05;;;;;;;390.07;253.80;;;;;;;14.36;62.56;100269.44;344813;28;2148;-74
2022/10/24 00:12:18;;;;;;;392.45;257.85;;;;;;;14.32;62.50;100272.22;344345;28;1398;-74
2022/10/24 00:12:28;;;;;;;390.83;263.33;;;;;;;14.32;62.58;100271.38;344659;28;1422;-75
2022/10/24 00:12:38;;;;;;;392.67;269.95;;;;;;;14.31;62.60;100267.88;345327;28;1242;-74
2022/10/24 00:12:49;;;;;;;391.23;266.53;;;;;;;14.31;62.49;100265.25;345973;28;1375;-75
2022/10/24 00:12:59;;;;;;;388.25;258.05;;;;;;;14.31;62.89;100270.50;343459;28;818;-75
2022/10/24 00:13:11;;;;;;;387.40;250.63;;;;;;;14.31;62.66;100261.75;346583;28;1910;-74
2022/10/24 00:13:21;;;;;;;387.90;252.40;;;;;;;14.35;62.82;100265.09;346258;28;1326;-74
2022/10/24 00:13:33;;;;;;;390.70;258.27;;;;;;;14.33;62.65;100268.66;343496;28;1512;-74
2022/10/24 00:13:43;;;;;;;390.48;260.73;;;;;;;14.30;62.57;100268.81;343551;28;915;-77
2022/10/24 00:13:55;;;;;;;391.60;262.63;;;;;;;14.28;62.65;100265.41;345763;28;1433;-75
2022/10/24 00:14:05;;;;;;;391.02;261.67;;;;;;;14.26;62.69;100267.25;345375;28;1801;-75
2022/10/24 00:14:15;;;;;;;390.37;258.73;;;;;;;14.26;63.23;100262.00;344715;28;1119;-75
2022/10/24 00:14:26;;;;;;;390.98;259.50;;;;;;;14.26;62.87;100262.00;343559;28;915;-75
2022/10/24 00:14:36;;;;;;;391.27;259.07;;;;;;;14.26;62.80;100272.53;346399;28;1244;-75
2022/10/24 00:14:47;;;;;;;393.10;262.65;;;;;;;14.22;62.94;100265.69;345016;28;1219;-75
2022/10/24 00:14:58;;;;;;;390.13;258.10;;;;;;;14.21;63.11;100269.25;344837;28;944;-75
2022/10/24 00:15:08;;;;;;;386.87;253.30;;;;;;;14.21;62.82;100269.25;344858;28;817;-75
2022/10/24 00:15:19;;;;;;;385.60;250.05;;;;;;;14.18;63.32;100264.13;346829;28;893;-75
2022/10/24 00:15:29;;;;;;;386.93;252.97;;;;;;;14.19;62.89;100265.84;344511;28;1493;-75
2022/10/24 00:15:43;;;;;;;390.05;257.33;;;;;;;14.19;63.28;100265.84;344754;28;1456;-75
2022/10/24 00:15:53;;;;;;;391.38;257.23;;;;;;;14.20;63.36;100264.06;344703;28;1479;-75
2022/10/24 00:16:04;;;;;;;392.63;260.53;;;;;;;14.19;63.20;100265.84;342359;28;1473;-75
2022/10/24 00:16:14;;;;;;;390.88;255.65;;;;;;;14.18;63.40;100264.13;343524;28;862;-75
2022/10/24 00:16:28;;;;;;;389.33;256.20;;;;;;;14.19;63.22;100265.84;335527;29;1205;-75
2022/10/24 00:16:39;;;;;;;390.13;255.82;;;;;;;14.16;63.60;100263.34;337825;29;1286;-75
2022/10/24 00:16:50;;;;;;;392.65;265.67;;;;;;;14.13;63.33;100266.09;336980;29;2095;-75
2022/10/24 00:17:00;;;;;;;393.38;268.20;;;;;;;14.10;63.09;100266.25;336990;29;1972;-75
2022/10/24 00:17:10;;;;;;;393.57;271.33;;;;;;;14.09;63.64;100261.91;335503;29;1521;-75
2022/10/24 00:17:21;;;;;;;390.02;260.60;;;;;;;14.10;63.42;100266.25;332994;29;1317;-75
2022/10/24 00:17:32;;;;;;;387.57;256.10;;;;;;;14.07;63.50;100263.75;332255;29;1460;-75
2022/10/24 00:17:42;;;;;;;386.95;255.07;;;;;;;14.07;63.58;100266.38;331900;29;839;-75
2022/10/24 00:17:52;;;;;;;390.80;260.57;;;;;;;14.07;63.47;100269.00;331755;29;1028;-75
2022/10/24 00:18:03;;;;;;;393.80;258.63;;;;;;;14.07;63.44;100265.53;331584;29;1631;-75
2022/10/24 00:18:14;;;;;;;393.00;254.10;;;;;;;14.05;63.52;100262.97;330636;29;863;-75
2022/10/24 00:18:24;;;;;;;390.10;254.40;;;;;;;14.06;63.44;100267.31;330302;29;1662;-75
2022/10/24 00:18:34;;;;;;;387.38;259.42;;;;;;;14.07;63.88;100262.88;331509;29;1944;-75
2022/10/24 00:18:45;;;;;;;389.30;262.67;;;;;;;14.06;63.63;100261.19;329280;30;1263;-75
2022/10/24 00:18:55;;;;;;;389.73;262.33;;;;;;;14.06;63.01;100264.66;326950;30;1099;-75
2022/10/24 00:19:06;;;;;;;390.20;258.60;;;;;;;14.06;63.51;100267.31;331410;29;2201;-75
2022/10/24 00:19:16;;;;;;;386.80;254.47;;;;;;;14.03;63.69;100262.16;331756;29;1786;-75
2022/10/24 00:19:26;;;;;;;386.35;251.05;;;;;;;14.02;63.35;100264.88;329912;29;3823;-75
2022/10/24 00:19:37;;;;;;;386.37;255.17;;;;;;;14.03;63.27;100263.94;325797;30;4407;-75
2022/10/24 00:19:47;;;;;;;390.80;259.98;;;;;;;14.02;63.44;100262.22;330613;29;2582;-75
2022/10/24 00:19:59;;;;;;;396.77;273.00;;;;;;;14.03;63.45;100263.94;330464;29;1295;-74
2022/10/24 00:20:12;;;;;;;397.33;274.48;;;;;;;14.01;63.62;100263.16;335117;29;3835;-75
2022/10/24 00:20:22;;;;;;;393.73;269.23;;;;;;;14.03;63.28;100259.53;330515;29;2057;-75
2022/10/24 00:20:33;;;;;;;390.38;263.83;;;;;;;14.01;63.12;100258.75;328697;29;2341;-75
2022/10/24 00:20:43;;;;;;;387.53;255.27;;;;;;;14.01;63.32;100261.38;325786;30;1422;-75
2022/10/24 00:20:54;;;;;;;388.77;256.45;;;;;;;14.03;63.21;100259.53;329560;29;2422;-75
2022/10/24 00:21:05;;;;;;;388.87;253.63;;;;;;;14.05;63.25;100262.09;328439;30;2625;-75
2022/10/24 00:21:15;;;;;;;387.10;249.93;;;;;;;14.04;63.46;100263.88;327757;30;2751;-75
2022/10/24 00:21:25;;;;;;;384.48;246.07;;;;;;;14.03;63.41;100259.53;325798;30;837;-75
2022/10/24 00:21:36;;;;;;;385.30;250.83;;;;;;;14.04;63.27;100255.97;319944;30;2440;-75
2022/10/24 00:21:46;;;;;;;389.00;259.93;;;;;;;14.06;63.27;100259.41;318738;30;2001;-75
2022/10/24 00:21:57;;;;;;;390.93;262.07;;;;;;;14.08;63.20;100257.56;315748;31;2032;-75
2022/10/24 00:22:07;;;;;;;390.13;257.80;;;;;;;14.08;63.17;100262.81;319889;30;2051;-75
2022/10/24 00:22:17;;;;;;;389.40;258.88;;;;;;;14.07;63.47;100261.09;319314;30;2380;-75
2022/10/24 00:22:28;;;;;;;388.50;264.07;;;;;;;14.08;63.14;100252.28;316228;31;1239;-76
2022/10/24 00:22:39;;;;;;;388.73;265.52;;;;;;;14.05;63.09;100257.69;311487;31;4001;-76
2022/10/24 00:22:50;;;;;;;387.27;259.85;;;;;;;14.04;63.12;100249.88;313110;31;3141;-76
2022/10/24 00:23:00;;;;;;;387.35;257.92;;;;;;;14.05;63.23;100262.09;315472;31;2996;-76
2022/10/24 00:23:12;;;;;;;388.63;260.30;;;;;;;14.05;63.42;100252.44;315114;31;863;-76
2022/10/24 00:23:22;;;;;;;390.05;261.75;;;;;;;14.06;63.07;100253.28;310647;31;4055;-76
2022/10/24 00:23:33;;;;;;;388.75;256.55;;;;;;;14.08;63.22;100264.59;308496;31;3615;-75
2022/10/24 00:23:44;;;;;;;387.17;252.53;;;;;;;14.05;63.11;100262.97;310700;31;1432;-76
2022/10/24 00:23:54;;;;;;;388.52;256.13;;;;;;;14.03;62.93;100264.81;308286;31;2599;-75
2022/10/24 00:24:05;;;;;;;390.17;263.43;;;;;;;14.04;63.20;100255.97;306788;32;2372;-75
2022/10/24 00:24:16;;;;;;;390.15;265.23;;;;;;;14.03;63.66;100254.28;303239;31;2952;-75
2022/10/24 00:24:26;;;;;;;390.70;266.43;;;;;;;14.03;63.66;100254.28;304331;32;830;-75
2022/10/24 00:24:36;;;;;;;390.58;263.83;;;;;;;14.03;63.40;100259.53;306355;31;3428;-74
2022/10/24 00:24:47;;;;;;;391.73;267.90;;;;;;;14.03;63.36;100261.31;306859;32;3716;-75
2022/10/24 00:24:57;;;;;;;390.60;267.73;;;;;;;14.02;63.41;100257.81;306337;32;944;-75
2022/10/24 00:25:08;;;;;;;389.30;266.57;;;;;;;14.02;63.24;100256.97;302490;32;4493;-75
2022/10/24 00:25:18;;;;;;;389.42;267.77;;;;;;;14.01;63.04;100250.84;299893;32;4412;-76
2022/10/24 00:25:29;;;;;;;391.03;268.50;;;;;;;13.99;63.27;100261.44;297039;33;887;-76
2022/10/24 00:25:39;;;;;;;391.42;270.58;;;;;;;14.03;63.17;100263.94;302294;32;4679;-76
2022/10/24 00:25:50;;;;;;;389.90;261.53;;;;;;;14.03;63.39;100264.81;302116;32;5030;-75
2022/10/24 00:26:00;;;;;;;390.73;264.15;;;;;;;14.05;63.40;100248.94;299675;32;3609;-75
2022/10/24 00:26:11;;;;;;;391.55;262.02;;;;;;;14.07;63.50;100257.63;299007;33;1059;-75
2022/10/24 00:26:22;;;;;;;391.77;264.13;;;;;;;14.06;63.20;100253.28;298603;32;3471;-75
2022/10/24 00:26:32;;;;;;;389.48;257.23;;;;;;;14.06;63.05;100258.53;296933;32;4328;-76
2022/10/24 00:26:43;;;;;;;389.73;257.92;;;;;;;14.04;63.21;100255.97;299065;33;1265;-76
2022/10/24 00:26:53;;;;;;;390.23;262.20;;;;;;;14.05;63.43;100257.69;296922;33;5046;-76
2022/10/24 00:27:04;;;;;;;389.63;262.20;;;;;;;14.07;63.28;100255.84;294258;33;5498;-75
2022/10/24 00:27:14;;;;;;;388.33;262.57;;;;;;;14.07;63.34;100262.88;292242;33;887;-75
2022/10/24 00:27:24;;;;;;;386.35;260.35;;;;;;;14.08;63.75;100257.56;294678;33;6535;-75
2022/10/24 00:27:35;;;;;;;387.17;262.53;;;;;;;14.08;63.50;100252.28;296579;33;6174;-75
2022/10/24 00:27:45;;;;;;;387.30;259.13;;;;;;;14.10;63.68;100263.59;293079;33;6065;-75
2022/10/24 00:27:56;;;;;;;388.52;260.35;;;;;;;14.13;63.83;100255.56;295003;33;1251;-75
2022/10/24 00:28:06;;;;;;;389.83;261.83;;;;;;;14.15;63.45;100255.50;294196;33;7045;-75
2022/10/24 00:28:16;;;;;;;388.90;261.95;;;;;;;14.15;63.76;100253.72;292510;33;5073;-75
2022/10/24 00:28:27;;;;;;;387.90;261.30;;;;;;;14.13;63.67;100254.72;293113;33;1066;-75
2022/10/24 00:28:38;;;;;;;386.77;258.90;;;;;;;14.15;63.32;100256.38;289665;33;5655;-75
2022/10/24 00:28:48;;;;;;;386.45;255.20;;;;;;;14.12;63.49;100253.88;287213;33;6591;-75
2022/10/24 00:28:59;;;;;;;386.03;252.63;;;;;;;14.10;63.45;100250.44;287251;34;6577;-75
2022/10/24 00:29:09;;;;;;;390.03;255.60;;;;;;;14.09;63.29;100259.25;283448;34;7459;-75
2022/10/24 00:29:19;;;;;;;389.58;256.17;;;;;;;14.08;63.37;100252.28;280154;34;8898;-75
2022/10/24 00:29:30;;;;;;;390.95;255.75;;;;;;;14.09;63.29;100254.00;280702;35;7248;-75
2022/10/24 00:29:41;;;;;;;388.60;256.13;;;;;;;14.10;63.47;100254.84;278299;35;925;-75
2022/10/24 00:29:51;;;;;;;389.48;260.08;;;;;;;14.11;63.45;100249.53;278790;35;8964;-75
2022/10/24 00:31:44;;;;;;;374.13;235.87;;;;;;;14.07;63.40;100261.09;2498668;27;20276;-75
2022/10/24 00:31:55;;;;;;;383.43;247.77;;;;;;;14.08;63.24;100247.03;354550;27;1304;-74
2022/10/24 00:32:05;;;;;;;384.02;247.15;;;;;;;14.07;63.47;100247.09;353062;28;1533;-74
2022/10/24 00:32:15;;;;;;;384.07;244.27;;;;;;;14.07;63.45;100249.72;351837;28;876;-74
2022/10/24 00:32:26;;;;;;;384.48;248.98;;;;;;;14.07;63.45;100253.22;348922;28;1324;-74
2022/10/24 00:32:36;;;;;;;384.03;250.17;;;;;;;14.08;63.49;100249.66;347538;28;1291;-74
2022/10/24 00:32:47;;;;;;;384.92;249.98;;;;;;;14.06;63.42;100246.25;348151;28;1243;-74
2022/10/24 00:32:57;;;;;;;384.73;246.60;;;;;;;14.05;63.59;100252.44;350324;28;928;-75
2022/10/24 00:33:07;;;;;;;387.60;248.17;;;;;;;14.04;63.61;100249.88;348929;28;885;-74
2022/10/24 00:33:18;;;;;;;386.90;250.18;;;;;;;14.05;63.48;100244.53;347505;28;1813;-74
2022/10/24 00:33:28;;;;;;;386.90;253.83;;;;;;;14.06;63.31;100242.75;349811;28;2223;-76
2022/10/24 00:33:39;;;;;;;385.52;253.30;;;;;;;14.05;63.30;100247.16;348800;28;2099;-75
2022/10/24 00:33:49;;;;;;;388.00;255.90;;;;;;;14.04;63.60;100248.09;347798;28;854;-73
2022/10/24 00:34:00;;;;;;;388.13;254.60;;;;;;;14.04;63.73;100244.59;350296;28;1384;-73
2022/10/24 00:34:10;;;;;;;386.73;253.03;;;;;;;14.02;63.62;100252.56;348060;28;850;-73
2022/10/24 00:34:22;;;;;;;384.48;253.00;;;;;;;14.02;63.73;100246.44;346611;28;1396;-76
2022/10/24 00:34:32;;;;;;;387.17;259.17;;;;;;;14.03;63.99;100238.47;346480;28;2121;-76
2022/10/24 00:34:42;;;;;;;388.63;260.25;;;;;;;13.98;63.53;100236.06;347637;28;861;-76
2022/10/24 00:34:53;;;;;;;388.73;259.63;;;;;;;14.03;63.88;100249.00;345799;28;920;-77
2022/10/24 00:35:03;;;;;;;386.35;256.15;;;;;;;14.02;63.78;100243.81;347363;28;1211;-76
2022/10/24 00:35:14;;;;;;;386.93;258.10;;;;;;;14.02;64.02;100239.41;347460;28;869;-76
2022/10/24 00:35:24;;;;;;;387.02;256.17;;;;;;;14.04;63.73;100245.47;346661;28;1611;-76
2022/10/24 00:35:35;;;;;;;388.03;259.07;;;;;;;14.06;64.04;100243.59;345921;28;1392;-76
2022/10/24 00:35:45;;;;;;;383.73;253.13;;;;;;;14.07;63.91;100239.19;346265;28;1300;-76
2022/10/24 00:35:55;;;;;;;385.13;253.57;;;;;;;14.07;64.05;100245.31;346136;28;890;-76
2022/10/24 00:36:12;;;;;;;385.30;248.75;;;;;;;14.04;63.61;100237.56;344949;28;2062;-75
2022/10/24 00:36:23;;;;;;;387.17;253.27;;;;;;;14.02;63.58;100239.41;346004;28;1541;-75
2022/10/24 00:36:33;;;;;;;386.13;255.23;;;;;;;14.01;63.99;100240.31;348990;28;981;-74
2022/10/24 00:36:43;;;;;;;387.15;255.43;;;;;;;13.98;63.72;100235.19;344697;28;1382;-75
2022/10/24 00:36:54;;;;;;;385.00;250.47;;;;;;;13.92;63.83;100241.59;345022;28;1426;-75
2022/10/24 00:37:04;;;;;;;384.97;249.53;;;;;;;13.91;64.15;100239.03;344305;28;1196;-75
2022/10/24 00:37:15;;;;;;;385.48;253.10;;;;;;;13.88;63.78;100239.16;344732;28;1283;-75
2022/10/24 00:37:25;;;;;;;386.83;255.70;;;;;;;13.89;64.08;100246.97;344416;28;1128;-75
2022/10/24 00:37:35;;;;;;;385.83;254.77;;;;;;;13.88;64.24;100245.28;344942;28;1107;-75
2022/10/24 00:37:46;;;;;;;385.40;253.20;;;;;;;13.88;64.41;100244.41;345340;28;1891;-74
2022/10/24 00:37:56;;;;;;;384.90;253.45;;;;;;;13.87;64.43;100238.31;340970;28;5985;-75
2022/10/24 00:38:07;;;;;;;385.60;253.07;;;;;;;13.89;64.28;100251.41;342208;28;3414;-76
2022/10/24 00:38:17;;;;;;;388.50;256.27;;;;;;;13.87;64.44;100242.72;341853;28;3905;-75
2022/10/24 00:38:27;;;;;;;389.30;257.07;;;;;;;13.88;64.42;100250.53;340669;29;1229;-75
2022/10/24 00:38:38;;;;;;;386.60;255.20;;;;;;;13.90;64.22;100253.09;339792;29;6606;-76
2022/10/24 00:38:49;;;;;;;383.38;251.40;;;;;;;13.90;64.63;100248.69;343455;28;1245;-75
2022/10/24 00:38:59;;;;;;;383.00;251.27;;;;;;;13.90;64.39;100248.69;342142;28;945;-75
2022/10/24 00:39:10;;;;;;;385.30;256.63;;;;;;;13.91;64.44;100249.53;342097;28;1186;-75
2022/10/24 00:39:21;;;;;;;384.50;252.88;;;;;;;13.93;64.29;100250.34;341916;28;1401;-76
2022/10/24 00:39:31;;;;;;;385.00;251.67;;;;;;;13.95;64.22;100253.75;340896;28;1539;-76
2022/10/24 00:39:42;;;;;;;385.77;250.57;;;;;;;13.97;64.44;100252.75;342145;28;1566;-76
2022/10/24 00:39:52;;;;;;;388.23;250.80;;;;;;;13.98;64.59;100251.84;341880;28;1058;-76
2022/10/24 00:40:04;;;;;;;387.30;247.75;;;;;;;13.99;64.32;100248.28;338133;29;1179;-75
2022/10/24 00:40:15;;;;;;;387.83;248.30;;;;;;;13.96;63.94;100252.84;338230;29;891;-76
2022/10/24 00:40:25;;;;;;;386.80;250.60;;;;;;;13.95;64.08;100245.88;342223;28;1548;-76
2022/10/24 00:40:36;;;;;;;385.90;248.47;;;;;;;13.94;63.97;100252.91;343621;28;1916;-75
2022/10/24 00:40:46;;;;;;;385.45;246.90;;;;;;;13.93;64.03;100252.97;340742;29;1276;-75
2022/10/24 00:40:57;;;;;;;386.60;249.03;;;;;;;13.93;63.99;100252.97;337822;29;1820;-75
2022/10/24 00:41:08;;;;;;;388.40;254.63;;;;;;;13.93;63.99;100248.56;339481;29;1137;-75
2022/10/24 00:41:20;;;;;;;388.42;255.20;;;;;;;13.93;64.12;100252.97;339322;29;1966;-75
2022/10/24 00:41:36;;;;;;;385.38;252.07;;;;;;;13.94;63.98;100254.69;339568;29;948;-75
2022/10/24 00:41:46;;;;;;;382.90;246.38;;;;;;;13.90;64.03;100253.97;333007;29;1470;-75
2022/10/24 00:41:59;;;;;;;383.17;243.00;;;;;;;13.89;64.16;100249.63;330416;29;1821;-75
2022/10/24 00:42:10;;;;;;;383.63;245.35;;;;;;;13.89;64.18;100251.41;329742;29;1383;-75
2022/10/24 00:42:20;;;;;;;383.75;248.93;;;;;;;13.87;64.38;100250.59;330361;29;1591;-75
2022/10/24 00:42:31;;;;;;;382.65;246.82;;;;;;;13.85;64.28;100245.44;329312;30;886;-75
2022/10/24 00:42:41;;;;;;;384.73;250.90;;;;;;;13.86;64.38;100246.28;327634;30;2046;-75
2022/10/24 00:42:51;;;;;;;385.33;251.07;;;;;;;13.85;64.81;100250.72;327333;30;2032;-75
2022/10/24 00:43:02;;;;;;;386.00;255.10;;;;;;;13.85;64.54;100255.97;327283;30;1965;-75
2022/10/24 00:43:14;;;;;;;384.40;253.67;;;;;;;13.86;64.37;100251.56;325638;30;1282;-74
2022/10/24 00:43:25;;;;;;;386.08;258.38;;;;;;;13.87;64.13;100253.25;327560;30;1670;-74
2022/10/24 00:43:35;;;;;;;383.50;248.33;;;;;;;13.87;64.50;100250.59;323944;30;1873;-74
2022/10/24 00:43:45;;;;;;;383.67;248.93;;;;;;;13.88;64.55;100254.94;322183;30;898;-74
2022/10/24 00:44:15;;;;;;;382.33;247.70;;;;;;;13.88;64.56;100254.94;319573;30;2342;-74
2022/10/24 00:44:26;;;;;;;385.77;250.20;;;;;;;13.88;64.35;100258.44;321320;30;1839;-74
2022/10/24 00:44:37;;;;;;;385.83;247.77;;;;;;;13.87;64.34;100258.50;322168;30;3437;-74
2022/10/24 00:44:50;;;;;;;383.58;247.60;;;;;;;13.87;64.30;100259.34;317595;31;910;-74
2022/10/24 00:45:00;;;;;;;385.65;253.05;;;;;;;13.88;64.39;100260.22;314091;31;874;-74
2022/10/24 00:45:37;;;;;;;388.00;254.40;;;;;;;13.87;64.52;100261.13;314465;31;1679;-74
2022/10/24 00:46:00;;;;;;;382.55;245.98;;;;;;;13.86;64.16;100262.09;311236;31;1960;-74
2022/10/24 00:46:11;;;;;;;383.77;250.23;;;;;;;13.81;64.61;100266.69;311091;31;3129;-76
2022/10/24 00:46:21;;;;;;;384.60;250.43;;;;;;;13.79;64.76;100261.50;309767;31;3250;-76
2022/10/24 00:46:31;;;;;;;384.38;249.07;;;;;;;13.79;64.41;100265.91;308515;32;1343;-77
2022/10/24 00:47:12;;;;;;;385.70;253.57;;;;;;;13.81;64.63;100270.19;303535;32;2820;-75
2022/10/24 00:47:24;;;;;;;387.77;260.58;;;;;;;13.82;64.74;100260.50;301191;32;3901;-74
2022/10/24 00:47:35;;;;;;;387.75;257.85;;;;;;;13.81;64.58;100264.06;298856;32;2079;-75
2022/10/24 00:47:45;;;;;;;387.45;258.25;;;;;;;13.79;64.75;100263.28;298000;33;6615;-75
2022/10/24 00:47:55;;;;;;;388.70;259.97;;;;;;;13.79;64.59;100265.91;299338;32;2761;-75
2022/10/24 00:48:36;;;;;;;388.93;263.07;;;;;;;13.81;64.63;100264.06;297869;33;3642;-75
2022/10/24 00:48:49;;;;;;;391.02;262.35;;;;;;;13.84;64.27;100266.56;288188;34;1250;-75
2022/10/24 00:48:59;;;;;;;388.67;257.90;;;;;;;13.84;64.30;100266.56;289251;34;951;-75
2022/10/24 00:49:12;;;;;;;386.67;251.57;;;;;;;13.85;64.12;100270.91;286667;34;3956;-75
2022/10/24 00:49:31;;;;;;;384.30;246.02;;;;;;;13.87;64.00;100267.25;286954;33;4729;-74
2022/10/24 00:50:09;;;;;;;384.27;251.15;;;;;;;13.89;64.08;100261.91;287458;34;2564;-77
2022/10/24 00:50:19;;;;;;;386.23;249.80;;;;;;;13.90;63.67;100266.25;287376;34;5552;-76
2022/10/24 00:50:29;;;;;;;384.73;245.43;;;;;;;13.87;63.94;100266.38;283772;34;1899;-75
2022/10/24 00:50:40;;;;;;;387.10;250.97;;;;;;;13.84;63.85;100262.16;284068;34;8466;-75
2022/10/24 00:50:53;;;;;;;385.10;249.20;;;;;;;13.84;63.90;100263.94;283933;34;9099;-75
2022/10/24 00:51:07;;;;;;;386.30;251.63;;;;;;;13.85;64.04;100260.38;286359;34;1328;-75
2022/10/24 00:51:17;;;;;;;385.92;255.05;;;;;;;13.87;63.90;100261.13;285558;34;854;-75
2022/10/24 00:51:30;;;;;;;386.33;256.27;;;;;;;13.87;63.28;100261.97;284561;34;5396;-75
2022/10/24 00:51:41;;;;;;;384.84;251.90;;;;;;;13.86;63.53;100262.09;282188;34;6622;-75
2022/10/24 00:51:53;;;;;;;386.20;252.37;;;;;;;13.84;63.71;100262.16;280063;35;3844;-75
2022/10/24 00:52:05;;;;;;;386.83;253.43;;;;;;;13.83;63.40;100257.81;277685;35;1675;-74
2022/10/24 00:52:20;;;;;;;388.92;258.23;;;;;;;13.81;63.57;100264.91;279948;35;1459;-74
2022/10/24 00:52:36;;;;;;;387.58;257.38;;;;;;;13.79;63.36;100258.88;275196;35;2188;-74
2022/10/24 00:52:47;;;;;;;384.65;252.73;;;;;;;13.80;63.43;100264.97;274552;35;1842;-75
2022/10/24 00:54:56;;;;;;;372.74;235.46;;;;;;;13.84;63.47;100262.16;2502928;27;20487;-75
2022/10/24 00:55:07;;;;;;;380.76;241.80;;;;;;;13.82;63.51;100253.47;353109;28;919;-75
2022/10/24 00:55:20;;;;;;;381.00;243.07;;;;;;;13.82;63.58;100260.50;349973;28;1870;-75
2022/10/24 00:55:30;;;;;;;383.23;250.88;;;;;;;13.80;63.27;100257.94;347737;28;994;-75
2022/10/24 00:55:41;;;;;;;385.03;252.13;;;;;;;13.80;63.42;100257.09;346134;28;1173;-75
2022/10/24 00:55:54;;;;;;;385.13;251.85;;;;;;;13.79;62.79;100261.50;347607;28;1435;-76
2022/10/24 00:56:04;;;;;;;383.27;246.90;;;;;;;13.80;63.31;100257.09;347551;28;856;-75
2022/10/24 00:56:16;;;;;;;384.20;246.23;;;;;;;13.81;63.43;100258.78;348281;28;3956;-74
2022/10/24 00:56:28;;;;;;;385.05;242.82;;;;;;;13.78;63.43;100248.41;345796;28;6020;-76
2022/10/24 00:57:05;;;;;;;384.92;239.60;;;;;;;13.79;63.55;100260.63;347495;28;959;-76
2022/10/24 00:57:20;;;;;;;385.20;254.45;;;;;;;13.79;63.31;100250.13;342187;28;1149;-76
2022/10/24 00:57:34;;;;;;;384.85;252.02;;;;;;;13.79;63.86;100253.59;348730;28;1712;-75
2022/10/24 00:57:47;;;;;;;383.13;244.40;;;;;;;13.79;63.83;100250.97;348873;28;840;-75
2022/10/24 00:58:00;;;;;;;382.52;243.38;;;;;;;13.76;63.73;100253.72;346167;28;860;-76
2022/10/24 00:58:10;;;;;;;382.65;246.23;;;;;;;13.75;63.70;100251.16;347675;28;921;-76
2022/10/24 00:58:22;;;;;;;381.53;242.03;;;;;;;13.75;63.71;100248.53;347432;28;949;-76